Time;durP1;ratioP1;P1;durP2;ratioP2;P2;SDS_P1;SDS_P2;PMS_P1;PMS_P2;Temp;Humidity;BMP_temperature;BMP_pressure;BME280_temperature;BME280_humidity;BME280_pressure;Samples;Min_cycle;Max_cycle;Signal;HPM_P1;HPM_P2
2021/01/11 00:01:25;;;;;;;99.05;88.53;;;17.50;50.90;;;;;;5095914;28;20052;-51
2021/01/11 00:03:51;;;;;;;97.82;87.25;;;17.50;51.00;;;;;;5096313;28;20450;-51
2021/01/11 00:06:17;;;;;;;97.63;87.05;;;17.50;50.90;;;;;;5095669;28;20099;-51
2021/01/11 00:08:43;;;;;;;98.45;87.75;;;17.50;50.90;;;;;;5096197;28;20484;-50
2021/01/11 00:11:09;;;;;;;94.13;84.15;;;17.50;50.90;;;;;;5077691;28;20044;-51
2021/01/11 00:13:35;;;;;;;95.22;85.05;;;17.50;50.90;;;;;;5096139;28;20024;-50
2021/01/11 00:16:01;;;;;;;96.95;86.57;;;17.50;50.90;;;;;;5095752;28;20081;-51
2021/01/11 00:18:26;;;;;;;95.47;85.20;;;17.50;50.90;;;;;;5095898;28;20024;-51
2021/01/11 00:20:52;;;;;;;94.95;84.78;;;17.50;50.90;;;;;;5095775;28;20054;-52
2021/01/11 00:23:18;;;;;;;95.30;85.20;;;17.40;50.80;;;;;;5095687;28;20032;-51
2021/01/11 00:25:44;;;;;;;94.78;84.13;;;17.40;50.80;;;;;;5094530;28;20073;-52
2021/01/11 00:28:10;;;;;;;91.22;81.32;;;17.40;50.80;;;;;;5095607;28;20028;-52
2021/01/11 00:30:36;;;;;;;93.97;83.68;;;17.40;50.80;;;;;;5093564;28;20052;-52
2021/01/11 00:33:02;;;;;;;89.65;80.00;;;17.40;50.80;;;;;;5094561;28;20437;-52
2021/01/11 00:35:28;;;;;;;90.63;80.85;;;17.40;50.80;;;;;;5094123;28;20020;-52
2021/01/11 00:37:54;;;;;;;87.57;78.38;;;17.40;50.80;;;;;;5095766;28;20497;-52
2021/01/11 00:40:20;;;;;;;87.68;78.15;;;17.40;50.70;;;;;;5093894;28;20130;-52
2021/01/11 00:42:46;;;;;;;86.10;76.90;;;17.40;50.70;;;;;;5095500;28;20032;-52
2021/01/11 00:45:12;;;;;;;84.05;75.20;;;17.40;50.80;;;;;;5087559;28;20036;-51
2021/01/11 00:47:42;;;;;;;85.55;76.57;;;17.30;50.70;;;;;;5095149;28;20051;-51
2021/01/11 00:50:12;;;;;;;84.22;75.22;;;17.30;50.70;;;;;;5077311;28;20032;-51
2021/01/11 00:52:39;;;;;;;85.38;76.15;;;17.30;50.70;;;;;;5094709;28;20028;-52
2021/01/11 00:55:08;;;;;;;85.68;76.40;;;17.30;50.70;;;;;;5093238;28;20031;-52
2021/01/11 00:57:35;;;;;;;85.25;76.10;;;17.30;50.70;;;;;;5093196;28;20036;-51
2021/01/11 01:00:09;;;;;;;82.07;73.25;;;17.30;50.70;;;;;;5093189;28;20028;-52
2021/01/11 01:02:50;;;;;;;81.55;72.72;;;17.30;50.70;;;;;;5094513;28;20085;-52
2021/01/11 01:05:16;;;;;;;82.43;73.68;;;17.30;50.60;;;;;;5093369;28;20028;-51
2021/01/11 01:07:43;;;;;;;78.63;70.40;;;17.30;50.60;;;;;;5091850;28;20028;-52
2021/01/11 01:10:11;;;;;;;81.80;72.75;;;17.30;50.60;;;;;;5093569;28;20358;-51
2021/01/11 01:12:37;;;;;;;81.85;73.22;;;17.30;50.70;;;;;;5094390;28;20416;-52
2021/01/11 01:15:08;;;;;;;79.70;70.78;;;17.30;50.70;;;;;;5093644;28;20049;-51
2021/01/11 01:17:35;;;;;;;79.30;70.75;;;17.30;50.70;;;;;;5093247;28;20031;-52
2021/01/11 01:20:02;;;;;;;79.53;71.03;;;17.20;50.60;;;;;;5092738;28;20035;-51
2021/01/11 01:22:28;;;;;;;79.72;71.28;;;17.30;50.60;;;;;;5093006;28;20032;-51
2021/01/11 01:24:54;;;;;;;79.85;70.90;;;17.20;50.60;;;;;;5092859;28;20351;-52
2021/01/11 01:27:20;;;;;;;75.88;67.82;;;17.20;50.60;;;;;;5093129;28;20054;-51
2021/01/11 01:29:46;;;;;;;78.03;69.68;;;17.20;50.60;;;;;;5091432;28;20036;-51
2021/01/11 01:32:12;;;;;;;75.47;67.15;;;17.20;50.60;;;;;;5092310;28;20039;-51
2021/01/11 01:34:38;;;;;;;77.88;68.15;;;17.20;50.60;;;;;;5092932;28;20027;-51
2021/01/11 01:37:04;;;;;;;73.72;65.65;;;17.20;50.60;;;;;;5092079;28;20026;-51
2021/01/11 01:39:30;;;;;;;75.82;67.45;;;17.20;50.60;;;;;;5094692;28;20027;-51
2021/01/11 01:41:56;;;;;;;72.53;64.60;;;17.20;50.60;;;;;;5093929;28;20088;-51
2021/01/11 01:44:22;;;;;;;72.43;64.50;;;17.20;50.60;;;;;;5094276;28;20112;-51
2021/01/11 01:46:48;;;;;;;73.10;65.22;;;17.10;50.50;;;;;;5094128;28;20048;-51
2021/01/11 01:49:14;;;;;;;72.15;64.38;;;17.20;50.60;;;;;;5094613;28;20404;-51
2021/01/11 01:51:41;;;;;;;70.68;63.13;;;17.10;50.50;;;;;;5093709;28;20580;-51
2021/01/11 01:54:08;;;;;;;72.45;64.10;;;17.10;50.50;;;;;;5094337;28;20028;-51
2021/01/11 01:56:34;;;;;;;71.55;63.80;;;17.10;50.50;;;;;;5093796;28;20023;-51
2021/01/11 01:59:02;;;;;;;71.97;64.03;;;17.10;50.50;;;;;;5094159;28;20028;-51
2021/01/11 02:01:28;;;;;;;74.95;65.25;;;17.10;50.50;;;;;;5092382;28;20035;-51
2021/01/11 02:03:54;;;;;;;70.57;62.95;;;17.10;50.50;;;;;;5092504;28;20082;-51
2021/01/11 02:06:24;;;;;;;71.10;63.42;;;17.10;50.50;;;;;;5093576;28;20032;-52
2021/01/11 02:09:12;;;;;;;69.07;61.53;;;17.10;50.50;;;;;;5092828;28;20361;-51
2021/01/11 02:11:45;;;;;;;68.75;61.25;;;17.10;50.50;;;;;;5093218;28;20048;-51
2021/01/11 02:14:22;;;;;;;65.70;58.53;;;17.00;50.50;;;;;;5093935;28;20032;-51
2021/01/11 02:17:06;;;;;;;67.80;60.55;;;17.00;50.50;;;;;;5093152;28;20024;-51
2021/01/11 02:19:48;;;;;;;65.00;57.92;;;17.00;50.50;;;;;;5093928;28;20130;-51
2021/01/11 02:22:59;;;;;;;67.07;59.95;;;17.00;50.50;;;;;;5093142;28;20028;-51
2021/01/11 02:25:29;;;;;;;64.20;57.20;;;17.00;50.50;;;;;;5093125;28;20036;-51
2021/01/11 02:28:00;;;;;;;65.20;58.10;;;17.00;50.40;;;;;;5093176;28;20032;-52
2021/01/11 02:30:37;;;;;;;65.90;58.72;;;17.00;50.40;;;;;;5092941;28;20052;-52
2021/01/11 02:33:05;;;;;;;63.95;57.08;;;17.00;50.50;;;;;;5091415;28;20050;-51
2021/01/11 02:35:53;;;;;;;65.18;57.90;;;17.00;50.40;;;;;;5092686;28;20027;-51
2021/01/11 02:38:21;;;;;;;61.03;54.42;;;17.00;50.50;;;;;;5093127;28;20028;-51
2021/01/11 02:40:48;;;;;;;63.00;56.15;;;16.90;50.40;;;;;;5093274;28;20028;-51
2021/01/11 02:43:15;;;;;;;60.75;54.30;;;16.90;50.40;;;;;;5093477;28;20379;-52
2021/01/11 02:45:41;;;;;;;62.97;56.08;;;16.90;50.40;;;;;;5092099;28;20039;-51
2021/01/11 02:48:24;;;;;;;61.85;55.08;;;17.00;50.50;;;;;;5093042;28;20020;-51
2021/01/11 02:51:09;;;;;;;59.40;52.95;;;16.90;50.40;;;;;;5093182;28;20055;-51
2021/01/11 02:53:50;;;;;;;59.47;53.20;;;16.90;50.50;;;;;;5093046;28;20062;-51
2021/01/11 02:56:42;;;;;;;59.60;53.25;;;16.90;50.50;;;;;;5093049;28;20058;-51
2021/01/11 02:59:19;;;;;;;59.60;53.13;;;16.80;50.40;;;;;;5088788;28;20036;-51
2021/01/11 03:01:58;;;;;;;56.97;50.38;;;16.80;50.40;;;;;;5093071;28;20070;-51
2021/01/11 03:04:25;;;;;;;57.97;51.78;;;16.90;50.40;;;;;;5091562;28;20031;-51
2021/01/11 03:06:58;;;;;;;55.83;49.72;;;16.90;50.40;;;;;;5092865;28;20089;-51
2021/01/11 03:09:25;;;;;;;57.60;51.35;;;16.80;50.40;;;;;;5092805;28;20028;-51
2021/01/11 03:11:51;;;;;;;58.22;51.95;;;16.90;50.40;;;;;;5093172;28;20103;-51
2021/01/11 03:14:17;;;;;;;56.45;50.40;;;16.80;50.40;;;;;;5092887;28;20027;-51
2021/01/11 03:16:43;;;;;;;56.10;49.95;;;16.80;50.40;;;;;;5092932;28;20020;-50
2021/01/11 03:19:09;;;;;;;55.33;49.45;;;16.80;50.50;;;;;;5092705;28;20026;-51
2021/01/11 03:21:35;;;;;;;57.00;50.90;;;16.80;51.00;;;;;;5093169;28;20099;-50
2021/01/11 03:24:01;;;;;;;56.05;49.97;;;16.80;50.50;;;;;;5092657;28;20066;-50
2021/01/11 03:26:28;;;;;;;54.85;48.92;;;16.80;50.40;;;;;;5092981;28;20057;-51
2021/01/11 03:28:55;;;;;;;54.67;48.83;;;16.80;50.50;;;;;;5093014;28;20082;-51
2021/01/11 03:31:22;;;;;;;53.60;47.88;;;16.80;50.50;;;;;;5095882;28;20055;-51
2021/01/11 03:33:48;;;;;;;54.17;48.38;;;16.80;50.50;;;;;;5095729;28;20110;-50
2021/01/11 03:36:15;;;;;;;55.22;49.25;;;16.80;50.50;;;;;;5096533;28;20027;-51
2021/01/11 03:38:41;;;;;;;52.95;47.15;;;16.80;50.50;;;;;;5096507;28;20130;-51
2021/01/11 03:41:08;;;;;;;49.47;44.20;;;16.70;50.40;;;;;;5096103;28;20031;-51
2021/01/11 03:43:40;;;;;;;54.70;48.45;;;16.80;50.50;;;;;;5096584;28;20028;-51
2021/01/11 03:46:08;;;;;;;53.33;47.25;;;16.70;50.40;;;;;;5095680;28;20120;-51
2021/01/11 03:48:34;;;;;;;54.20;46.72;;;16.70;50.40;;;;;;5095219;28;20028;-51
2021/01/11 03:51:01;;;;;;;50.45;45.10;;;16.70;50.40;;;;;;5094684;28;20064;-50
2021/01/11 03:53:27;;;;;;;50.63;45.00;;;16.70;50.40;;;;;;5095103;28;20495;-51
2021/01/11 03:55:53;;;;;;;50.88;45.35;;;16.70;50.40;;;;;;5094920;28;20017;-51
2021/01/11 03:58:20;;;;;;;50.53;45.00;;;16.70;50.40;;;;;;5095273;28;20112;-50
2021/01/11 04:00:50;;;;;;;49.03;43.72;;;16.70;50.40;;;;;;5095620;28;20101;-50
2021/01/11 04:03:17;;;;;;;50.00;44.35;;;16.70;50.40;;;;;;5095406;28;20105;-51
2021/01/11 04:05:46;;;;;;;49.88;44.45;;;16.70;50.40;;;;;;5086736;28;20493;-50
2021/01/11 04:08:16;;;;;;;50.38;44.88;;;16.70;50.40;;;;;;5095720;28;20073;-51
2021/01/11 04:10:42;;;;;;;48.63;43.30;;;16.70;50.40;;;;;;5096096;28;20024;-50
2021/01/11 04:13:08;;;;;;;48.83;42.92;;;16.70;50.40;;;;;;5095990;28;20032;-51
2021/01/11 04:15:35;;;;;;;46.92;41.92;;;16.70;50.40;;;;;;5096125;28;20024;-52
2021/01/11 04:18:01;;;;;;;47.33;42.38;;;16.70;50.40;;;;;;5094073;28;20537;-51
2021/01/11 04:20:27;;;;;;;46.50;41.42;;;16.70;50.40;;;;;;5093454;28;20428;-52
2021/01/11 04:22:53;;;;;;;48.15;42.85;;;16.60;50.40;;;;;;5095743;28;20363;-51
2021/01/11 04:25:20;;;;;;;46.28;41.35;;;16.70;50.40;;;;;;5095318;28;20020;-52
2021/01/11 04:27:46;;;;;;;47.38;42.17;;;16.60;50.40;;;;;;5095686;28;20032;-52
2021/01/11 04:30:12;;;;;;;46.35;41.30;;;16.60;50.40;;;;;;5095076;28;20055;-52
2021/01/11 04:32:39;;;;;;;44.97;40.17;;;16.60;50.40;;;;;;5094143;28;20063;-51
2021/01/11 04:35:07;;;;;;;43.97;39.47;;;16.60;50.40;;;;;;5094107;28;20064;-52
2021/01/11 04:37:33;;;;;;;45.63;40.88;;;16.60;50.40;;;;;;5095219;28;20486;-52
2021/01/11 04:39:59;;;;;;;44.75;39.92;;;16.60;50.40;;;;;;5094466;28;20378;-51
2021/01/11 04:42:49;;;;;;;43.13;38.47;;;16.60;50.40;;;;;;5094007;28;20036;-52
2021/01/11 04:45:19;;;;;;;44.20;39.50;;;16.60;50.40;;;;;;5094777;28;20482;-50
2021/01/11 04:47:51;;;;;;;43.58;38.97;;;16.60;50.40;;;;;;5094306;28;20032;-51
2021/01/11 04:50:18;;;;;;;44.08;39.15;;;16.60;50.40;;;;;;5094704;28;20032;-51
2021/01/11 04:52:46;;;;;;;43.15;38.58;;;16.60;50.40;;;;;;5094515;28;20032;-51
2021/01/11 04:55:13;;;;;;;43.08;38.42;;;16.60;50.40;;;;;;5093702;28;20107;-51
2021/01/11 04:57:53;;;;;;;43.15;38.08;;;16.50;50.30;;;;;;5093918;28;20023;-52
2021/01/11 05:00:30;;;;;;;43.40;38.67;;;16.50;50.30;;;;;;5093359;28;20026;-52
2021/01/11 05:02:58;;;;;;;41.72;37.30;;;16.60;50.40;;;;;;5093764;28;20057;-51
2021/01/11 05:05:25;;;;;;;41.05;36.75;;;16.60;50.40;;;;;;5092493;28;20035;-51
2021/01/11 05:07:51;;;;;;;44.05;36.40;;;16.60;50.40;;;;;;5094435;28;20032;-51
2021/01/11 05:10:29;;;;;;;40.13;36.00;;;16.60;50.40;;;;;;5094630;28;20032;-51
2021/01/11 05:13:00;;;;;;;40.38;36.00;;;16.50;50.30;;;;;;5094748;28;20028;-51
2021/01/11 05:15:28;;;;;;;40.13;35.83;;;16.60;50.40;;;;;;5094694;28;20039;-51
2021/01/11 05:17:54;;;;;;;40.03;35.75;;;16.60;50.40;;;;;;5094673;28;20474;-51
2021/01/11 05:20:27;;;;;;;40.17;35.88;;;16.50;50.30;;;;;;5094228;28;20027;-51
2021/01/11 05:22:55;;;;;;;40.28;35.67;;;16.50;50.30;;;;;;5094686;28;20489;-51
2021/01/11 05:25:24;;;;;;;39.42;35.22;;;16.50;50.30;;;;;;5094390;28;20381;-52
2021/01/11 05:28:15;;;;;;;38.50;34.47;;;16.50;50.30;;;;;;5094642;28;20074;-52
2021/01/11 05:30:42;;;;;;;39.50;35.13;;;16.50;50.30;;;;;;5094076;28;20520;-52
2021/01/11 05:33:19;;;;;;;38.67;34.58;;;16.50;50.30;;;;;;5094416;28;20035;-53
2021/01/11 05:35:46;;;;;;;37.47;33.47;;;16.50;50.30;;;;;;5094322;28;20493;-53
2021/01/11 05:38:18;;;;;;;37.75;33.65;;;16.50;50.30;;;;;;5094831;28;20051;-53
2021/01/11 05:40:45;;;;;;;37.60;33.25;;;16.50;50.30;;;;;;5094219;28;20032;-53
2021/01/11 05:43:19;;;;;;;36.80;32.95;;;16.50;50.30;;;;;;5094456;28;20021;-53
2021/01/11 05:45:45;;;;;;;38.72;33.88;;;16.50;50.40;;;;;;5094168;28;20408;-53
2021/01/11 05:48:12;;;;;;;38.65;34.35;;;16.50;50.30;;;;;;5091506;28;20073;-53
2021/01/11 05:50:47;;;;;;;37.58;33.55;;;16.50;50.40;;;;;;5093515;28;20107;-52
2021/01/11 05:53:16;;;;;;;39.55;35.30;;;16.40;50.30;;;;;;5092949;28;20038;-52
2021/01/11 05:55:42;;;;;;;40.10;35.80;;;16.50;51.00;;;;;;5093941;28;20063;-52
2021/01/11 05:58:08;;;;;;;40.22;36.03;;;16.50;50.40;;;;;;5093924;28;20031;-52
2021/01/11 06:00:36;;;;;;;41.72;37.35;;;16.40;50.30;;;;;;5093388;28;20035;-52
2021/01/11 06:03:06;;;;;;;45.25;40.45;;;16.40;50.30;;;;;;5091013;28;20016;-52
2021/01/11 06:05:33;;;;;;;45.75;40.78;;;16.40;50.30;;;;;;5093284;28;20478;-53
2021/01/11 06:08:00;;;;;;;48.08;42.90;;;16.40;50.30;;;;;;5090449;28;20149;-52
2021/01/11 06:10:26;;;;;;;53.38;47.25;;;16.40;50.30;;;;;;5093264;28;20417;-52
2021/01/11 06:12:53;;;;;;;53.08;47.30;;;16.40;50.40;;;;;;5093368;28;20043;-52
2021/01/11 06:15:28;;;;;;;52.10;46.40;;;16.40;50.40;;;;;;5093559;28;20035;-52
2021/01/11 06:17:56;;;;;;;54.97;48.78;;;16.40;50.40;;;;;;5093791;28;20051;-53
2021/01/11 06:20:27;;;;;;;59.88;53.03;;;16.40;50.40;;;;;;5093698;28;20043;-51
2021/01/11 06:22:54;;;;;;;61.38;54.80;;;16.40;50.40;;;;;;5093797;28;20158;-52
2021/01/11 06:25:20;;;;;;;64.28;57.30;;;16.40;50.40;;;;;;5093419;28;20024;-52
2021/01/11 06:27:52;;;;;;;63.53;56.70;;;16.40;50.40;;;;;;5093723;28;20035;-53
2021/01/11 06:30:34;;;;;;;67.82;60.42;;;16.40;50.40;;;;;;5093271;28;20044;-53
2021/01/11 06:33:06;;;;;;;68.35;60.90;;;16.40;50.50;;;;;;5093655;28;20032;-52
2021/01/11 06:35:41;;;;;;;69.60;62.17;;;16.40;50.50;;;;;;5093565;28;20046;-52
2021/01/11 06:38:09;;;;;;;70.85;63.15;;;16.40;50.50;;;;;;5093735;28;20070;-52
2021/01/11 06:40:35;;;;;;;74.22;66.32;;;16.40;50.50;;;;;;5093302;28;20102;-53
2021/01/11 06:43:03;;;;;;;73.93;65.30;;;16.40;50.50;;;;;;5093552;28;20379;-52
2021/01/11 06:45:40;;;;;;;76.90;68.80;;;16.30;50.40;;;;;;5093051;28;20020;-51
2021/01/11 06:48:07;;;;;;;77.43;69.13;;;16.40;50.50;;;;;;5093170;28;20110;-50
2021/01/11 06:50:35;;;;;;;78.15;69.93;;;16.40;50.50;;;;;;5093161;28;20030;-53
2021/01/11 06:53:02;;;;;;;80.53;71.60;;;16.30;50.50;;;;;;5093209;28;20032;-53
2021/01/11 06:55:29;;;;;;;83.60;74.53;;;16.30;50.50;;;;;;5092704;28;20420;-52
2021/01/11 06:57:59;;;;;;;81.03;72.45;;;16.30;50.50;;;;;;5092219;28;20020;-51
2021/01/11 07:00:39;;;;;;;83.82;75.07;;;16.30;50.50;;;;;;5093005;28;20040;-52
2021/01/11 07:03:07;;;;;;;87.53;78.10;;;16.30;50.50;;;;;;5093603;28;20035;-51
2021/01/11 07:05:33;;;;;;;88.43;78.32;;;16.30;50.50;;;;;;5092084;28;20390;-51
2021/01/11 07:08:09;;;;;;;88.93;79.30;;;16.40;50.50;;;;;;5096711;28;20035;-51
2021/01/11 07:10:36;;;;;;;90.72;81.00;;;16.30;50.50;;;;;;5109436;28;20059;-50
2021/01/11 07:13:18;;;;;;;92.82;82.88;;;16.40;50.50;;;;;;5097094;28;20024;-51
2021/01/11 07:15:53;;;;;;;92.43;82.22;;;16.30;50.60;;;;;;5096583;28;20018;-53
2021/01/11 07:18:37;;;;;;;97.20;86.53;;;16.30;50.50;;;;;;5096914;28;20024;-53
2021/01/11 07:21:11;;;;;;;95.45;85.18;;;16.30;50.60;;;;;;5097812;28;20024;-52
2021/01/11 07:23:38;;;;;;;196.02;172.32;;;16.30;50.60;;;;;;5096625;28;20027;-55
2021/01/11 07:26:09;;;;;;;318.05;281.48;;;16.30;50.70;;;;;;5096417;28;20034;-52
2021/01/11 07:28:35;;;;;;;336.58;297.85;;;16.30;50.70;;;;;;5088152;28;20396;-54
2021/01/11 07:31:01;;;;;;;314.23;276.60;;;16.30;50.70;;;;;;5095733;28;20035;-53
2021/01/11 07:33:27;;;;;;;305.25;269.92;;;16.30;50.70;;;;;;5096448;28;20396;-52
2021/01/11 07:35:53;;;;;;;302.15;265.88;;;16.10;50.60;;;;;;5096462;28;20052;-51
2021/01/11 07:38:19;;;;;;;287.52;255.80;;;16.30;50.70;;;;;;5096792;28;20028;-51
2021/01/11 07:40:45;;;;;;;288.00;256.33;;;16.30;50.70;;;;;;5096097;28;20024;-51
2021/01/11 07:43:22;;;;;;;283.77;252.75;;;16.30;50.70;;;;;;5096343;28;20047;-51
2021/01/11 07:45:48;;;;;;;278.15;245.93;;;16.30;50.70;;;;;;5095549;28;20427;-51
2021/01/11 07:48:21;;;;;;;272.85;243.40;;;16.30;50.70;;;;;;5095823;28;20020;-53
2021/01/11 07:50:47;;;;;;;268.15;239.00;;;16.30;50.80;;;;;;5078844;28;20027;-52
2021/01/11 07:53:13;;;;;;;230.48;205.32;;;16.30;50.70;;;;;;5087355;28;20107;-51
2021/01/11 07:55:40;;;;;;;487.40;435.60;;;16.30;50.80;;;;;;5092479;28;20041;-51
2021/01/11 07:58:06;;;;;;;526.70;471.58;;;16.30;50.80;;;;;;5092473;28;20496;-54
2021/01/11 08:00:32;;;;;;;512.15;459.15;;;16.30;50.90;;;;;;5090306;28;20028;-54
2021/01/11 08:02:58;;;;;;;494.75;442.83;;;16.30;50.80;;;;;;5093326;28;20028;-52
2021/01/11 08:05:26;;;;;;;483.75;433.00;;;16.30;50.90;;;;;;5081535;28;20017;-53
2021/01/11 08:08:01;;;;;;;473.50;423.77;;;16.20;50.80;;;;;;5085289;28;20020;-53
2021/01/11 08:10:27;;;;;;;459.85;411.52;;;16.30;50.90;;;;;;5086663;28;20355;-53
2021/01/11 08:13:04;;;;;;;452.15;404.70;;;16.30;50.90;;;;;;5093778;28;20047;-53
2021/01/11 08:15:30;;;;;;;446.40;399.48;;;16.20;50.80;;;;;;5087491;28;20074;-52
2021/01/11 08:17:57;;;;;;;437.85;391.60;;;16.30;50.90;;;;;;5086760;28;20024;-53
2021/01/11 08:20:24;;;;;;;429.88;384.40;;;16.30;50.90;;;;;;5094180;28;20514;-52
2021/01/11 08:22:50;;;;;;;418.13;373.42;;;16.30;50.90;;;;;;5086734;28;20051;-51
2021/01/11 08:25:16;;;;;;;411.50;367.77;;;16.30;50.90;;;;;;5084182;28;20037;-50
2021/01/11 08:27:49;;;;;;;407.02;363.50;;;16.30;50.90;;;;;;5074627;28;20032;-52
2021/01/11 08:30:19;;;;;;;395.42;352.73;;;16.30;50.80;;;;;;5088468;28;20486;-53
2021/01/11 08:32:48;;;;;;;388.25;345.90;;;16.30;50.80;;;;;;5088912;28;20486;-52
2021/01/11 08:35:16;;;;;;;385.95;344.40;;;16.30;50.80;;;;;;5080629;28;20775;-57
2021/01/11 08:37:43;;;;;;;380.17;338.77;;;16.30;50.80;;;;;;5094147;28;20035;-56
2021/01/11 08:40:34;;;;;;;381.30;340.13;;;16.30;50.80;;;;;;5091623;28;20359;-57
2021/01/11 08:43:19;;;;;;;367.70;327.52;;;16.30;50.80;;;;;;5085795;28;20071;-56
2021/01/11 08:45:50;;;;;;;352.30;313.23;;;16.30;50.80;;;;;;5077746;28;20033;-55
2021/01/11 08:48:23;;;;;;;356.90;317.30;;;16.30;50.80;;;;;;5085578;28;20088;-55
2021/01/11 08:50:52;;;;;;;351.23;312.73;;;16.40;50.80;;;;;;5077350;28;20115;-57
2021/01/11 08:53:41;;;;;;;347.15;309.17;;;16.40;50.80;;;;;;5089081;28;20020;-57
2021/01/11 08:56:09;;;;;;;342.65;305.00;;;16.40;50.90;;;;;;5093888;28;20488;-57
2021/01/11 08:58:36;;;;;;;331.55;295.33;;;16.40;50.90;;;;;;5094691;28;20095;-57
2021/01/11 09:01:22;;;;;;;324.10;288.60;;;16.40;50.80;;;;;;5113290;28;20028;-55
2021/01/11 09:03:54;;;;;;;322.42;286.77;;;16.40;50.80;;;;;;5095484;28;20068;-57
2021/01/11 09:06:36;;;;;;;311.42;276.67;;;16.50;50.80;;;;;;5092419;28;20028;-58
2021/01/11 09:09:14;;;;;;;221.57;197.75;;;16.50;50.90;;;;;;5091762;28;20047;-58
2021/01/11 09:11:42;;;;;;;165.05;146.88;;;16.50;51.30;;;;;;5090770;28;20035;-57
2021/01/11 09:14:15;;;;;;;187.05;166.57;;;16.50;51.40;;;;;;5092998;28;20058;-57
2021/01/11 09:16:42;;;;;;;153.52;135.57;;;16.60;51.80;;;;;;5091847;28;20093;-58
2021/01/11 09:19:13;;;;;;;160.88;143.25;;;16.70;51.90;;;;;;5093347;28;20016;-57
2021/01/11 09:21:41;;;;;;;155.43;138.25;;;16.70;52.00;;;;;;5090436;28;20847;-57
2021/01/11 09:24:08;;;;;;;152.48;136.07;;;16.80;52.00;;;;;;5092076;28;20099;-57
2021/01/11 09:26:41;;;;;;;154.80;137.60;;;16.80;52.00;;;;;;5091157;28;20085;-58
2021/01/11 09:29:08;;;;;;;147.32;131.60;;;16.90;52.20;;;;;;5092318;28;20035;-58
2021/01/11 09:31:35;;;;;;;143.27;127.53;;;17.00;52.20;;;;;;5093069;28;20052;-56
2021/01/11 09:34:02;;;;;;;140.65;121.55;;;17.00;52.10;;;;;;5092305;28;20465;-59
2021/01/11 09:36:32;;;;;;;158.15;136.73;;;17.10;51.90;;;;;;5092846;28;20023;-52
2021/01/11 09:38:58;;;;;;;154.32;137.32;;;17.10;51.60;;;;;;5089178;28;20028;-51
2021/01/11 09:41:24;;;;;;;131.35;114.15;;;17.20;51.70;;;;;;5092905;28;20171;-51
2021/01/11 09:43:50;;;;;;;105.32;92.82;;;17.20;51.40;;;;;;5089890;28;20476;-60
2021/01/11 09:46:16;;;;;;;66.10;55.70;;;17.30;51.20;;;;;;5093164;28;20054;-58
2021/01/11 09:48:42;;;;;;;70.47;60.67;;;17.30;50.50;;;;;;5091789;28;20024;-60
2021/01/11 09:51:08;;;;;;;36.63;27.65;;;17.30;50.10;;;;;;5092017;28;20169;-51
2021/01/11 09:53:34;;;;;;;36.22;30.05;;;17.30;49.30;;;;;;5092529;28;20416;-50
2021/01/11 09:56:00;;;;;;;37.10;28.73;;;17.30;49.30;;;;;;5093472;28;20102;-49
2021/01/11 09:58:26;;;;;;;30.77;23.88;;;17.20;49.60;;;;;;5096508;28;20031;-48
2021/01/11 10:00:52;;;;;;;23.90;19.60;;;17.30;49.60;;;;;;5093242;28;20024;-48
2021/01/11 10:03:21;;;;;;;15.90;14.25;;;17.30;49.40;;;;;;5092872;28;20028;-48
2021/01/11 10:05:58;;;;;;;15.73;12.88;;;17.20;49.30;;;;;;5093516;28;20043;-48
2021/01/11 10:08:24;;;;;;;9.80;8.45;;;17.30;49.00;;;;;;5093732;28;20032;-48
2021/01/11 10:10:50;;;;;;;8.73;7.82;;;17.30;48.90;;;;;;5093824;28;20861;-48
2021/01/11 10:13:16;;;;;;;11.25;7.95;;;17.30;48.70;;;;;;5093839;28;20035;-49
2021/01/11 10:15:42;;;;;;;9.45;7.28;;;17.40;48.90;;;;;;5093775;28;20032;-49
2021/01/11 10:18:08;;;;;;;6.35;5.75;;;17.40;49.30;;;;;;5093512;28;20480;-47
2021/01/11 10:20:34;;;;;;;8.13;6.45;;;17.50;48.60;;;;;;5093350;28;20486;-48
2021/01/11 10:23:00;;;;;;;6.50;5.78;;;17.60;48.50;;;;;;5090984;28;20055;-48
2021/01/11 10:25:26;;;;;;;7.47;4.40;;;17.60;48.30;;;;;;5093390;28;20103;-47
2021/01/11 10:27:54;;;;;;;5.10;4.60;;;17.60;47.90;;;;;;5093343;28;20055;-47
2021/01/11 10:30:21;;;;;;;5.20;4.60;;;17.60;47.70;;;;;;5093409;28;20052;-48
2021/01/11 10:32:47;;;;;;;5.88;5.32;;;17.60;47.70;;;;;;5091977;28;20032;-48
2021/01/11 10:35:13;;;;;;;6.50;5.50;;;17.60;47.60;;;;;;5093577;28;20381;-48
2021/01/11 10:37:39;;;;;;;5.50;5.00;;;17.60;47.60;;;;;;5092901;28;20027;-51
2021/01/11 10:40:05;;;;;;;7.38;5.63;;;17.60;47.40;;;;;;5092716;28;20036;-51
2021/01/11 10:42:31;;;;;;;12.73;11.30;;;17.60;47.50;;;;;;5092911;28;20016;-51
2021/01/11 10:44:58;;;;;;;12.40;10.35;;;17.60;47.60;;;;;;5091699;28;20020;-51
2021/01/11 10:47:24;;;;;;;16.48;11.23;;;17.50;47.40;;;;;;5092653;28;20016;-52
2021/01/11 10:49:50;;;;;;;12.18;10.98;;;17.60;47.60;;;;;;5093370;28;20034;-50
2021/01/11 10:52:16;;;;;;;12.63;9.27;;;17.60;47.70;;;;;;5093295;28;20036;-50
2021/01/11 10:54:42;;;;;;;15.35;11.95;;;17.60;47.70;;;;;;5093294;28;20016;-50
2021/01/11 10:57:08;;;;;;;17.50;15.10;;;17.60;47.70;;;;;;5093251;28;20023;-50
2021/01/11 10:59:34;;;;;;;18.02;15.90;;;17.60;47.60;;;;;;5093115;28;20028;-52
2021/01/11 11:02:00;;;;;;;16.25;13.82;;;17.70;47.60;;;;;;5093570;28;20082;-51
2021/01/11 11:04:26;;;;;;;20.55;18.25;;;17.70;47.50;;;;;;5091796;28;20114;-59
2021/01/11 11:06:57;;;;;;;30.75;20.23;;;17.80;47.50;;;;;;5092995;28;20143;-51
2021/01/11 11:09:23;;;;;;;24.08;20.70;;;17.80;47.50;;;;;;5091161;28;20050;-52
2021/01/11 11:11:52;;;;;;;22.52;18.17;;;17.90;47.50;;;;;;5086020;28;20458;-52
2021/01/11 11:14:18;;;;;;;21.23;18.60;;;18.00;47.30;;;;;;5092475;28;20347;-51
2021/01/11 11:16:44;;;;;;;23.48;19.23;;;18.00;47.20;;;;;;5092847;28;20469;-52
2021/01/11 11:19:10;;;;;;;21.27;18.80;;;18.10;47.00;;;;;;5092549;28;20023;-52
2021/01/11 11:21:36;;;;;;;19.08;15.45;;;18.20;47.00;;;;;;5092255;28;20111;-53
2021/01/11 11:24:02;;;;;;;19.08;15.38;;;18.20;46.70;;;;;;5088880;28;20111;-52
2021/01/11 11:26:28;;;;;;;21.38;16.08;;;18.30;46.70;;;;;;5092818;28;20028;-53
2021/01/11 11:28:54;;;;;;;14.23;12.40;;;18.40;46.60;;;;;;5091396;28;20081;-53
2021/01/11 11:31:21;;;;;;;14.82;12.65;;;18.40;46.50;;;;;;5092723;28;20130;-53
2021/01/11 11:33:47;;;;;;;13.20;11.77;;;18.50;46.30;;;;;;5091219;28;20035;-52
2021/01/11 11:36:13;;;;;;;17.80;10.82;;;18.60;46.10;;;;;;5090492;28;20024;-53
2021/01/11 11:38:39;;;;;;;16.27;9.48;;;18.70;45.90;;;;;;5091903;28;20104;-53
2021/01/11 11:41:05;;;;;;;14.35;9.70;;;18.80;45.90;;;;;;5090622;28;20063;-52
2021/01/11 11:43:31;;;;;;;12.18;8.65;;;18.90;45.90;;;;;;5092207;28;20059;-55
2021/01/11 11:45:57;;;;;;;10.13;8.52;;;18.90;45.60;;;;;;5092054;28;20028;-53
2021/01/11 11:48:23;;;;;;;8.88;7.80;;;19.00;45.50;;;;;;5093297;28;20034;-53
2021/01/11 11:50:49;;;;;;;8.07;6.65;;;19.10;45.10;;;;;;5093736;28;20028;-54
2021/01/11 11:53:15;;;;;;;11.38;7.22;;;19.20;45.00;;;;;;5096304;28;20423;-52
2021/01/11 11:55:41;;;;;;;9.23;7.88;;;19.20;44.70;;;;;;5095751;28;20099;-51
2021/01/11 11:58:07;;;;;;;8.98;8.10;;;19.30;44.50;;;;;;5095760;28;20035;-54
2021/01/11 12:00:33;;;;;;;10.32;7.18;;;19.30;44.50;;;;;;5095225;28;20024;-54
2021/01/11 12:02:59;;;;;;;11.68;8.40;;;19.40;44.50;;;;;;5095288;28;20032;-51
2021/01/11 12:05:25;;;;;;;8.55;7.05;;;19.50;44.40;;;;;;5095571;28;20039;-54
2021/01/11 12:07:53;;;;;;;8.10;6.50;;;19.60;44.50;;;;;;5096661;28;20141;-53
2021/01/11 12:10:19;;;;;;;12.52;7.72;;;19.80;44.20;;;;;;5094783;28;20051;-52
2021/01/11 12:12:49;;;;;;;12.70;9.05;;;19.90;44.10;;;;;;5095444;28;20229;-52
2021/01/11 12:15:15;;;;;;;11.07;9.70;;;20.10;44.00;;;;;;5094687;28;20032;-52
2021/01/11 12:17:44;;;;;;;19.80;10.20;;;20.40;43.90;;;;;;5094817;28;20139;-51
2021/01/11 12:20:10;;;;;;;10.07;8.95;;;20.60;43.50;;;;;;5095107;28;20027;-52
2021/01/11 12:22:36;;;;;;;12.63;9.35;;;21.00;43.30;;;;;;5094026;28;20043;-54
2021/01/11 12:25:04;;;;;;;13.45;9.52;;;21.40;43.10;;;;;;5096617;28;20038;-52
2021/01/11 12:27:32;;;;;;;10.63;7.82;;;21.70;42.60;;;;;;5094880;28;20028;-54
2021/01/11 12:29:58;;;;;;;7.68;6.55;;;22.10;41.80;;;;;;5094699;28;20055;-52
2021/01/11 12:32:25;;;;;;;10.95;6.70;;;22.60;41.40;;;;;;5095270;28;20036;-54
2021/01/11 12:34:51;;;;;;;11.05;7.00;;;23.00;40.70;;;;;;5094830;28;20028;-52